createdAt,value
2022-08-07T00:03:40.201Z,23.87
2022-08-07T00:06:14.675Z,23.93
2022-08-07T00:08:44.408Z,24.01
2022-08-07T00:11:11.707Z,23.91
2022-08-07T00:13:48.073Z,23.92
2022-08-07T00:16:17.481Z,23.92
2022-08-07T00:18:48.710Z,23.96
2022-08-07T00:21:55.538Z,24.07
2022-08-07T00:24:02.510Z,23.93
2022-08-07T00:26:48.800Z,23.97
2022-08-07T00:29:18.263Z,23.90
2022-08-07T00:31:51.295Z,23.93
2022-08-07T00:34:18.311Z,23.87
2022-08-07T00:36:49.013Z,23.84
2022-08-07T00:39:20.597Z,23.73
2022-08-07T00:42:01.712Z,23.77
2022-08-07T00:44:33.295Z,23.76
2022-08-07T00:47:01.764Z,23.75
2022-08-07T00:50:20.544Z,23.81
2022-08-07T00:52:17.713Z,23.83
2022-08-07T00:54:53.618Z,23.78
2022-08-07T00:57:23.064Z,23.81
2022-08-07T00:59:53.156Z,23.76
2022-08-07T01:02:29.028Z,23.73
2022-08-07T01:04:58.726Z,23.65
2022-08-07T01:07:27.543Z,23.68
2022-08-07T01:10:06.689Z,23.64
2022-08-07T01:12:53.578Z,23.72
2022-08-07T01:15:35.839Z,23.66
2022-08-07T01:18:10.724Z,23.70
2022-08-07T01:20:57.382Z,23.60
2022-08-07T01:23:38.052Z,23.58
2022-08-07T01:26:11.990Z,23.51
2022-08-07T01:28:45.997Z,23.48
2022-08-07T01:31:17.843Z,23.50
2022-08-07T01:33:56.243Z,23.54
2022-08-07T01:36:34.029Z,23.45
2022-08-07T01:39:09.796Z,23.24
2022-08-07T01:41:55.091Z,23.29
2022-08-07T01:44:26.681Z,23.24
2022-08-07T01:46:57.474Z,23.26
2022-08-07T01:49:28.584Z,23.32
2022-08-07T01:52:04.925Z,23.27
2022-08-07T01:54:39.923Z,23.26
2022-08-07T01:57:27.889Z,23.06
2022-08-07T02:00:02.023Z,23.12
2022-08-07T02:03:12.399Z,23.05
2022-08-07T02:06:08.998Z,22.96
2022-08-07T02:08:55.748Z,23.01
2022-08-07T02:11:30.817Z,23.06
2022-08-07T02:14:32.443Z,23.09
2022-08-07T02:16:59.896Z,23.06
2022-08-07T02:20:04.525Z,23.07
2022-08-07T02:22:20.202Z,23.02
2022-08-07T02:24:50.582Z,22.96
2022-08-07T02:27:20.889Z,22.96
2022-08-07T02:29:54.806Z,22.91
2022-08-07T02:32:27.084Z,22.99
2022-08-07T02:34:58.829Z,23.03
2022-08-07T02:37:34.172Z,23.01
2022-08-07T02:40:31.197Z,23.01
2022-08-07T02:42:53.551Z,23.01
2022-08-07T02:46:00.851Z,23.09
2022-08-07T02:48:15.361Z,23.07
2022-08-07T02:50:51.215Z,23.14
2022-08-07T02:53:27.436Z,23.11
2022-08-07T02:56:04.137Z,23.08
2022-08-07T02:58:34.584Z,23.00
2022-08-07T03:01:03.334Z,22.95
2022-08-07T03:03:50.131Z,22.95
2022-08-07T03:06:26.209Z,22.95
2022-08-07T03:09:06.264Z,22.93
2022-08-07T03:11:38.508Z,22.89
2022-08-07T03:14:07.236Z,22.83
2022-08-07T03:16:35.274Z,22.85
2022-08-07T03:19:02.662Z,22.79
2022-08-07T03:21:32.988Z,22.78
2022-08-07T03:24:19.722Z,22.84
2022-08-07T03:26:59.201Z,22.88
2022-08-07T03:29:53.298Z,22.71
2022-08-07T03:32:28.321Z,22.70
2022-08-07T03:35:01.096Z,22.73
2022-08-07T03:37:53.770Z,22.74
2022-08-07T03:40:24.119Z,22.84
2022-08-07T03:42:58.472Z,22.75
2022-08-07T03:45:30.762Z,22.87
2022-08-07T03:47:59.095Z,22.95
2022-08-07T03:50:28.447Z,23.04
2022-08-07T03:52:59.218Z,23.07
2022-08-07T03:55:53.014Z,23.09
2022-08-07T03:59:05.451Z,23.13
2022-08-07T04:01:07.528Z,23.26
2022-08-07T04:03:49.779Z,23.31
2022-08-07T04:06:37.170Z,23.35
2022-08-07T04:09:06.159Z,23.42
2022-08-07T04:12:21.346Z,23.49
2022-08-07T04:14:38.884Z,23.58
2022-08-07T04:17:20.067Z,23.72
2022-08-07T04:19:59.407Z,23.93
2022-08-07T04:22:28.941Z,24.03
2022-08-07T04:25:00.892Z,24.27
2022-08-07T04:27:28.489Z,24.34
2022-08-07T04:30:04.676Z,24.48
2022-08-07T04:32:34.568Z,24.57
2022-08-07T04:35:11.251Z,24.79
2022-08-07T04:38:00.830Z,24.92
2022-08-07T04:40:29.848Z,25.10
2022-08-07T04:43:02.134Z,25.22
2022-08-07T04:46:00.900Z,25.32
2022-08-07T04:48:31.073Z,25.50
2022-08-07T04:51:38.974Z,25.72
2022-08-07T04:54:22.867Z,25.87
2022-08-07T04:58:10.762Z,26.01
2022-08-07T05:00:18.836Z,26.21
2022-08-07T05:04:00.541Z,26.49
2022-08-07T05:06:20.158Z,26.75
2022-08-07T05:09:19.702Z,27.02
2022-08-07T05:12:09.912Z,27.23
2022-08-07T05:14:58.995Z,27.40
2022-08-07T05:18:00.648Z,27.45
2022-08-07T05:20:25.759Z,27.49
2022-08-07T05:22:56.992Z,27.76
2022-08-07T05:25:25.892Z,27.90
2022-08-07T05:28:20.120Z,28.10
2022-08-07T05:30:49.154Z,28.00
2022-08-07T05:33:17.991Z,27.91
2022-08-07T05:35:48.985Z,27.79
2022-08-07T05:38:58.059Z,27.42
2022-08-07T05:41:05.529Z,27.48
2022-08-07T05:43:50.231Z,27.28
2022-08-07T05:46:29.560Z,27.26
2022-08-07T05:48:59.507Z,27.28
2022-08-07T05:51:31.517Z,27.38
2022-08-07T05:54:12.273Z,27.43
2022-08-07T05:56:51.445Z,27.44
2022-08-07T05:59:21.308Z,27.35
2022-08-07T06:01:51.145Z,27.43
2022-08-07T06:04:26.259Z,27.56
2022-08-07T06:07:03.759Z,27.55
2022-08-07T06:10:03.741Z,27.54
2022-08-07T06:12:21.099Z,27.61
2022-08-07T06:14:55.372Z,27.70
2022-08-07T06:17:37.807Z,27.76
2022-08-07T06:20:06.212Z,28.13
2022-08-07T06:23:01.674Z,28.54
2022-08-07T06:25:34.752Z,28.64
2022-08-07T06:28:08.925Z,28.82
2022-08-07T06:30:45.347Z,28.89
2022-08-07T06:33:16.116Z,28.85
2022-08-07T06:35:45.764Z,29.11
2022-08-07T06:38:31.012Z,29.31
2022-08-07T06:41:02.089Z,29.86
2022-08-07T06:43:39.419Z,30.28
2022-08-07T06:46:11.499Z,30.17
2022-08-07T06:48:41.825Z,30.03
2022-08-07T06:51:31.085Z,29.63
2022-08-07T06:55:33.578Z,29.25
2022-08-07T06:56:55.702Z,28.58
2022-08-07T07:00:15.095Z,28.75
2022-08-07T07:02:53.725Z,28.72
2022-08-07T07:05:14.502Z,28.61
2022-08-07T07:08:06.688Z,28.08
2022-08-07T07:10:36.783Z,28.28
2022-08-07T07:13:56.030Z,28.61
2022-08-07T07:16:19.583Z,28.70
2022-08-07T07:18:55.861Z,28.94
2022-08-07T07:21:40.565Z,28.87
2022-08-07T07:24:17.400Z,29.06
2022-08-07T07:26:49.710Z,29.36
2022-08-07T07:29:39.463Z,29.42
2022-08-07T07:32:14.533Z,29.98
2022-08-07T07:34:48.622Z,30.30
2022-08-07T07:37:45.457Z,30.74
2022-08-07T07:40:10.137Z,31.01
2022-08-07T07:42:51.111Z,31.16
2022-08-07T07:46:35.642Z,31.36
2022-08-07T07:48:13.063Z,31.77
2022-08-07T07:51:02.184Z,31.91
2022-08-07T07:54:02.223Z,31.93
2022-08-07T07:56:32.213Z,32.14
2022-08-07T07:59:02.052Z,32.31
2022-08-07T08:02:02.378Z,32.42
2022-08-07T08:04:25.372Z,32.10
2022-08-07T08:06:54.911Z,32.24
2022-08-07T08:09:29.486Z,32.38
2022-08-07T08:12:02.656Z,32.54
2022-08-07T08:14:36.724Z,32.71
2022-08-07T08:17:56.389Z,32.95
2022-08-07T08:20:16.348Z,32.78
2022-08-07T08:23:08.372Z,32.82
2022-08-07T08:25:57.162Z,32.71
2022-08-07T08:28:37.416Z,32.91
2022-08-07T08:31:14.724Z,33.07
2022-08-07T08:33:55.876Z,33.46
2022-08-07T08:36:29.803Z,33.48
2022-08-07T08:39:02.283Z,33.41
2022-08-07T08:41:57.351Z,33.08
2022-08-07T08:44:55.922Z,33.34
2022-08-07T08:47:25.173Z,33.34
2022-08-07T08:50:34.760Z,33.34
2022-08-07T08:53:19.433Z,33.29
2022-08-07T08:56:10.821Z,33.53
2022-08-07T08:59:06.390Z,33.21
2022-08-07T09:01:49.276Z,33.05
2022-08-07T09:04:26.009Z,33.29
2022-08-07T09:07:45.948Z,33.09
2022-08-07T09:10:54.824Z,33.54
2022-08-07T09:13:37.093Z,33.77
2022-08-07T09:16:23.873Z,33.98
2022-08-07T09:19:53.610Z,34.09
2022-08-07T09:24:29.060Z,34.10
2022-08-07T09:25:44.215Z,33.30
2022-08-07T09:29:24.467Z,33.20
2022-08-07T09:31:56.504Z,33.44
2022-08-07T09:36:04.048Z,33.85
2022-08-07T09:38:03.813Z,33.71
2022-08-07T09:40:55.995Z,33.96
2022-08-07T09:44:06.664Z,34.06
2022-08-07T09:47:50.720Z,33.64
2022-08-07T09:50:23.543Z,33.69
2022-08-07T09:53:01.557Z,33.96
2022-08-07T09:56:03.246Z,33.84
2022-08-07T09:59:14.629Z,34.07
2022-08-07T10:01:58.393Z,34.12
2022-08-07T10:04:47.769Z,33.95
2022-08-07T10:07:39.770Z,33.99
2022-08-07T10:14:06.885Z,33.36
2022-08-07T10:16:56.249Z,33.27
2022-08-07T10:19:45.471Z,33.49
2022-08-07T10:22:46.753Z,33.73
2022-08-07T10:25:43.144Z,34.21
2022-08-07T10:28:41.341Z,33.86
2022-08-07T10:31:38.945Z,34.14
2022-08-07T10:34:37.627Z,33.91
2022-08-07T10:37:19.166Z,33.89
2022-08-07T10:40:39.053Z,33.75
2022-08-07T10:43:34.409Z,33.70
2022-08-07T10:46:13.206Z,33.88
2022-08-07T10:49:02.575Z,33.95
2022-08-07T10:51:39.695Z,34.06
2022-08-07T10:54:55.201Z,34.12
2022-08-07T10:57:43.367Z,34.16
2022-08-07T11:00:39.308Z,34.06
2022-08-07T11:03:37.907Z,34.07
2022-08-07T11:06:31.716Z,34.12
2022-08-07T11:10:09.641Z,34.14
2022-08-07T11:12:08.543Z,33.97
2022-08-07T11:15:00.248Z,34.22
2022-08-07T11:17:43.430Z,34.12
2022-08-07T11:20:50.687Z,33.77
2022-08-07T11:23:30.772Z,33.43
2022-08-07T11:26:22.183Z,33.62
2022-08-07T11:29:05.680Z,32.83
2022-08-07T11:32:02.992Z,32.96
2022-08-07T11:34:42.674Z,33.26
2022-08-07T11:37:57.860Z,33.43
2022-08-07T11:40:56.846Z,33.22
2022-08-07T11:43:29.777Z,33.26
2022-08-07T11:46:59.227Z,32.97
2022-08-07T11:50:31.156Z,32.97
2022-08-07T11:52:58.094Z,33.24
2022-08-07T11:56:09.315Z,33.12
2022-08-07T12:00:08.951Z,33.24
2022-08-07T12:02:38.466Z,33.42
2022-08-07T12:05:48.907Z,33.29
2022-08-07T12:08:25.915Z,33.08
2022-08-07T12:11:19.981Z,32.93
2022-08-07T12:13:59.914Z,33.05
2022-08-07T12:16:31.872Z,33.25
2022-08-07T12:19:26.307Z,33.37
2022-08-07T12:22:37.657Z,33.25
2022-08-07T12:26:21.687Z,33.37
2022-08-07T12:28:37.015Z,33.55
2022-08-07T12:31:17.212Z,33.41
2022-08-07T12:34:00.858Z,33.54
2022-08-07T12:36:32.894Z,33.49
2022-08-07T12:39:09.284Z,33.65
2022-08-07T12:41:53.855Z,33.42
2022-08-07T12:44:24.857Z,33.57
2022-08-07T12:47:31.677Z,33.40
2022-08-07T12:50:39.014Z,33.48
2022-08-07T12:54:02.739Z,33.71
2022-08-07T12:56:29.460Z,33.57
2022-08-07T12:58:59.746Z,33.78
2022-08-07T13:01:32.198Z,33.56
2022-08-07T13:04:32.504Z,33.28
2022-08-07T13:08:13.348Z,33.55
2022-08-07T13:10:51.777Z,33.65
2022-08-07T13:13:48.079Z,33.53
2022-08-07T13:16:38.554Z,33.73
2022-08-07T13:19:34.947Z,33.31
2022-08-07T13:22:27.501Z,33.53
2022-08-07T13:25:28.912Z,33.56
2022-08-07T13:28:24.200Z,33.44
2022-08-07T13:31:21.534Z,33.45
2022-08-07T13:34:34.035Z,33.48
2022-08-07T13:37:20.104Z,33.38
2022-08-07T13:40:35.840Z,33.25
2022-08-07T13:42:50.002Z,33.36
2022-08-07T13:46:11.069Z,33.42
2022-08-07T13:48:27.685Z,33.56
2022-08-07T13:51:01.965Z,33.55
2022-08-07T13:54:00.130Z,33.43
2022-08-07T13:56:36.105Z,33.11
2022-08-07T13:59:33.085Z,33.03
2022-08-07T14:02:10.781Z,33.18
2022-08-07T14:04:54.593Z,33.28
2022-08-07T14:07:34.132Z,33.16
2022-08-07T14:10:20.431Z,33.08
2022-08-07T14:12:56.088Z,33.23
2022-08-07T14:15:38.552Z,33.39
2022-08-07T14:18:29.856Z,33.30
2022-08-07T14:21:20.976Z,33.34
2022-08-07T14:24:21.174Z,33.30
2022-08-07T14:26:57.733Z,33.17
2022-08-07T14:30:05.699Z,33.23
2022-08-07T14:32:26.980Z,33.08
2022-08-07T14:34:55.355Z,33.07
2022-08-07T14:37:32.912Z,33.12
2022-08-07T14:40:16.979Z,33.00
2022-08-07T14:45:55.572Z,32.99
2022-08-07T14:48:27.630Z,33.12
2022-08-07T14:50:58.042Z,33.07
2022-08-07T14:54:08.681Z,33.06
2022-08-07T14:56:29.863Z,33.07
2022-08-07T14:59:03.244Z,33.02
2022-08-07T15:01:51.485Z,32.96
2022-08-07T15:04:21.983Z,33.01
2022-08-07T15:06:52.846Z,32.86
2022-08-07T15:09:58.797Z,32.84
2022-08-07T15:12:26.308Z,32.80
2022-08-07T15:15:21.498Z,32.67
2022-08-07T15:17:58.486Z,32.51
2022-08-07T15:25:14.675Z,32.48
2022-08-07T15:26:20.976Z,32.43
2022-08-07T15:30:03.531Z,32.35
2022-08-07T15:32:01.396Z,32.24
2022-08-07T15:34:50.576Z,32.23
2022-08-07T15:37:27.964Z,32.16
2022-08-07T15:39:59.199Z,32.19
2022-08-07T15:45:25.120Z,32.14
2022-08-07T15:48:26.955Z,31.97
2022-08-07T15:51:08.476Z,31.88
2022-08-07T15:53:53.205Z,31.83
2022-08-07T15:56:24.824Z,31.81
2022-08-07T15:58:59.375Z,31.72
2022-08-07T16:01:38.685Z,31.52
2022-08-07T16:04:15.596Z,31.60
2022-08-07T16:06:50.832Z,31.55
2022-08-07T16:09:40.875Z,31.57
2022-08-07T16:12:13.772Z,31.46
2022-08-07T16:15:55.244Z,31.38
2022-08-07T16:18:50.475Z,31.32
2022-08-07T16:22:02.205Z,31.31
2022-08-07T16:24:55.542Z,31.11
2022-08-07T16:27:39.878Z,31.17
2022-08-07T16:30:31.084Z,31.09
2022-08-07T16:34:02.435Z,31.07
2022-08-07T16:36:22.372Z,31.00
2022-08-07T16:39:04.819Z,30.92
2022-08-07T16:41:54.000Z,30.77
2022-08-07T16:45:14.152Z,30.75
2022-08-07T16:47:51.130Z,30.72
2022-08-07T16:51:07.437Z,30.64
2022-08-07T16:54:01.508Z,30.67
2022-08-07T16:56:32.673Z,30.56
2022-08-07T16:59:19.436Z,30.43
2022-08-07T17:02:03.057Z,30.36
2022-08-07T17:04:58.539Z,30.37
2022-08-07T17:07:55.311Z,30.16
2022-08-07T17:10:56.826Z,30.10
2022-08-07T17:14:19.601Z,30.10
2022-08-07T17:16:45.368Z,30.00
2022-08-07T17:20:02.567Z,29.94
2022-08-07T17:22:30.207Z,29.87
2022-08-07T17:25:10.844Z,29.80
2022-08-07T17:27:50.966Z,29.73
2022-08-07T17:30:20.431Z,29.68
2022-08-07T17:32:59.675Z,29.63
2022-08-07T17:35:55.704Z,29.60
2022-08-07T17:38:34.303Z,29.52
2022-08-07T17:42:04.072Z,29.44
2022-08-07T17:44:33.992Z,29.39
2022-08-07T17:47:17.040Z,29.33
2022-08-07T17:50:16.561Z,29.24
2022-08-07T17:52:58.937Z,29.17
2022-08-07T17:56:00.567Z,29.10
2022-08-07T17:58:53.112Z,29.00
2022-08-07T18:01:37.230Z,28.96
2022-08-07T18:04:49.152Z,28.92
2022-08-07T18:07:34.309Z,28.82
2022-08-07T18:10:32.828Z,28.79
2022-08-07T18:13:10.103Z,28.74
2022-08-07T18:16:03.164Z,28.65
2022-08-07T18:21:03.410Z,28.55
2022-08-07T18:21:57.929Z,28.44
2022-08-07T18:24:40.275Z,28.34
2022-08-07T18:27:20.778Z,28.30
2022-08-07T18:30:06.081Z,28.25
2022-08-07T18:33:10.752Z,28.16
2022-08-07T18:36:14.860Z,28.09
2022-08-07T18:40:06.915Z,28.06
2022-08-07T18:42:04.151Z,27.94
2022-08-07T18:45:43.814Z,27.82
2022-08-07T18:48:08.074Z,27.84
2022-08-07T18:50:47.968Z,27.78
2022-08-07T18:53:39.417Z,27.75
2022-08-07T18:56:31.769Z,27.73
2022-08-07T18:59:48.057Z,27.80
2022-08-07T19:02:34.108Z,27.66
2022-08-07T19:05:19.821Z,27.59
2022-08-07T19:08:05.435Z,27.60
2022-08-07T19:10:52.790Z,27.47
2022-08-07T19:13:25.402Z,27.49
2022-08-07T19:17:00.562Z,27.39
2022-08-07T19:19:31.929Z,27.39
2022-08-07T19:22:30.959Z,27.26
2022-08-07T19:25:05.605Z,27.15
2022-08-07T19:28:56.735Z,27.06
2022-08-07T19:30:55.492Z,27.02
2022-08-07T19:33:33.273Z,26.98
2022-08-07T19:36:03.322Z,26.99
2022-08-07T19:38:32.712Z,26.97
2022-08-07T19:41:02.201Z,26.94
2022-08-07T19:43:49.183Z,26.92
2022-08-07T19:46:35.884Z,26.87
2022-08-07T19:49:13.042Z,26.89
2022-08-07T19:51:52.760Z,26.87
2022-08-07T19:54:32.448Z,26.85
2022-08-07T19:58:01.165Z,26.83
2022-08-07T19:59:56.261Z,26.81
2022-08-07T20:02:51.664Z,26.75
2022-08-07T20:05:27.875Z,26.72
2022-08-07T20:08:00.412Z,26.50
2022-08-07T20:10:54.272Z,26.48
2022-08-07T20:13:41.929Z,26.39
2022-08-07T20:16:15.723Z,26.30
2022-08-07T20:19:00.792Z,26.29
2022-08-07T20:21:41.740Z,26.27
2022-08-07T20:24:28.870Z,26.31
2022-08-07T20:27:02.092Z,26.26
2022-08-07T20:29:48.243Z,26.22
2022-08-07T20:32:25.440Z,26.17
2022-08-07T20:34:57.446Z,26.01
2022-08-07T20:37:30.957Z,25.96
2022-08-07T20:40:05.031Z,25.98
2022-08-07T20:42:56.501Z,26.00
2022-08-07T20:45:32.818Z,25.89
2022-08-07T20:48:25.835Z,25.81
2022-08-07T20:51:01.548Z,25.85
2022-08-07T20:54:04.067Z,25.80
2022-08-07T20:56:26.013Z,25.75
2022-08-07T20:58:58.612Z,25.73
2022-08-07T21:01:36.302Z,25.59
2022-08-07T21:04:22.737Z,25.53
2022-08-07T21:06:55.113Z,25.56
2022-08-07T21:09:51.507Z,25.44
2022-08-07T21:12:25.962Z,25.41
2022-08-07T21:14:58.909Z,25.31
2022-08-07T21:18:01.928Z,25.42
2022-08-07T21:20:29.648Z,25.32
2022-08-07T21:23:07.717Z,25.33
2022-08-07T21:25:58.381Z,25.35
2022-08-07T21:28:51.129Z,25.26
2022-08-07T21:31:49.877Z,25.21
2022-08-07T21:34:26.680Z,25.20
2022-08-07T21:37:08.672Z,25.11
2022-08-07T21:39:55.131Z,25.05
2022-08-07T21:42:46.689Z,25.06
2022-08-07T21:46:09.581Z,25.05
2022-08-07T21:48:28.468Z,25.05
2022-08-07T21:51:32.829Z,24.81
2022-08-07T21:54:48.427Z,24.75
2022-08-07T21:57:52.308Z,24.82
2022-08-07T22:00:25.250Z,24.80
2022-08-07T22:03:03.432Z,24.83
2022-08-07T22:05:45.352Z,24.89
2022-08-07T22:08:19.998Z,24.89
2022-08-07T22:10:58.610Z,24.93
2022-08-07T22:13:52.921Z,24.95
2022-08-07T22:16:38.397Z,24.97
2022-08-07T22:19:20.237Z,24.95
2022-08-07T22:22:29.294Z,24.89
2022-08-07T22:25:11.328Z,24.90
2022-08-07T22:28:20.005Z,24.93
2022-08-07T22:30:31.488Z,24.87
2022-08-07T22:33:09.330Z,24.92
2022-08-07T22:36:11.814Z,24.83
2022-08-07T22:39:01.335Z,24.87
2022-08-07T22:42:03.574Z,24.80
2022-08-07T22:44:59.125Z,24.73
2022-08-07T22:47:45.193Z,24.67
2022-08-07T22:50:20.736Z,24.47
2022-08-07T22:52:56.212Z,24.49
2022-08-07T22:56:02.005Z,24.59
2022-08-07T22:58:43.219Z,24.65
2022-08-07T23:01:50.590Z,24.67
2022-08-07T23:04:36.093Z,24.66
2022-08-07T23:07:44.884Z,24.64
2022-08-07T23:10:41.857Z,24.50
2022-08-07T23:13:49.304Z,24.44
2022-08-07T23:16:48.281Z,24.41
2022-08-07T23:20:02.812Z,24.42
2022-08-07T23:22:39.943Z,24.43
2022-08-07T23:25:45.895Z,24.42
2022-08-07T23:28:54.584Z,24.39
2022-08-07T23:32:49.256Z,24.40
2022-08-07T23:34:37.695Z,24.46
2022-08-07T23:37:33.715Z,24.53
2022-08-07T23:40:27.396Z,24.46
2022-08-07T23:43:37.896Z,24.48
2022-08-07T23:46:13.012Z,24.45
2022-08-07T23:49:04.996Z,24.38
2022-08-07T23:53:11.807Z,24.36
2022-08-07T23:54:46.027Z,24.36
2022-08-07T23:57:42.953Z,24.35
